sensor_id;sensor_type;location;lat;lon;timestamp;pressure;altitude;pressure_sealevel;temperature;humidity
11349;BME280;5729;43.570;27.826;2023-04-04T00:00:52;98499.81;;;9.51;100.00
11349;BME280;5729;43.570;27.826;2023-04-04T00:03:18;98504.25;;;9.40;100.00
11349;BME280;5729;43.570;27.826;2023-04-04T00:05:44;98487.47;;;9.46;100.00
11349;BME280;5729;43.570;27.826;2023-04-04T00:08:09;98484.81;;;9.50;100.00
11349;BME280;5729;43.570;27.826;2023-04-04T00:10:35;98475.16;;;9.45;100.00
11349;BME280;5729;43.570;27.826;2023-04-04T00:13:01;98461.66;;;9.42;100.00
11349;BME280;5729;43.570;27.826;2023-04-04T00:15:28;98468.69;;;9.50;100.00
11349;BME280;5729;43.570;27.826;2023-04-04T00:17:53;98481.34;;;9.50;100.00
11349;BME280;5729;43.570;27.826;2023-04-04T00:20:19;98459.03;;;9.45;100.00
11349;BME280;5729;43.570;27.826;2023-04-04T00:22:45;98454.00;;;9.44;100.00
11349;BME280;5729;43.570;27.826;2023-04-04T00:25:10;98450.44;;;9.36;100.00
11349;BME280;5729;43.570;27.826;2023-04-04T00:27:36;98455.22;;;9.50;100.00
11349;BME280;5729;43.570;27.826;2023-04-04T00:30:01;98461.38;;;9.51;100.00
11349;BME280;5729;43.570;27.826;2023-04-04T00:32:27;98461.03;;;9.52;100.00
11349;BME280;5729;43.570;27.826;2023-04-04T00:34:53;98450.13;;;9.41;100.00
11349;BME280;5729;43.570;27.826;2023-04-04T00:37:19;98446.34;;;9.46;100.00
11349;BME280;5729;43.570;27.826;2023-04-04T00:39:44;98438.66;;;9.48;100.00
11349;BME280;5729;43.570;27.826;2023-04-04T00:42:09;98432.44;;;9.40;100.00
11349;BME280;5729;43.570;27.826;2023-04-04T00:44:35;98413.53;;;9.33;100.00
11349;BME280;5729;43.570;27.826;2023-04-04T00:47:02;98414.31;;;9.37;100.00
11349;BME280;5729;43.570;27.826;2023-04-04T00:49:28;98411.69;;;9.41;100.00
11349;BME280;5729;43.570;27.826;2023-04-04T00:51:54;98412.06;;;9.39;100.00
11349;BME280;5729;43.570;27.826;2023-04-04T00:54:19;98404.69;;;9.33;100.00
11349;BME280;5729;43.570;27.826;2023-04-04T00:56:45;98406.59;;;9.32;100.00
11349;BME280;5729;43.570;27.826;2023-04-04T00:59:12;98404.63;;;9.29;100.00
11349;BME280;5729;43.570;27.826;2023-04-04T01:01:38;98397.69;;;9.28;100.00
11349;BME280;5729;43.570;27.826;2023-04-04T01:04:03;98382.59;;;9.20;100.00
11349;BME280;5729;43.570;27.826;2023-04-04T01:06:29;98364.50;;;9.17;100.00
11349;BME280;5729;43.570;27.826;2023-04-04T01:08:56;98381.88;;;9.23;100.00
11349;BME280;5729;43.570;27.826;2023-04-04T01:11:23;98368.44;;;9.23;100.00
11349;BME280;5729;43.570;27.826;2023-04-04T01:13:49;98363.78;;;9.20;100.00
11349;BME280;5729;43.570;27.826;2023-04-04T01:16:16;98356.44;;;9.17;100.00
11349;BME280;5729;43.570;27.826;2023-04-04T01:18:42;98347.66;;;9.20;100.00
11349;BME280;5729;43.570;27.826;2023-04-04T01:21:13;98344.56;;;9.18;100.00
11349;BME280;5729;43.570;27.826;2023-04-04T01:23:51;98345.28;;;9.15;100.00
11349;BME280;5729;43.570;27.826;2023-04-04T01:26:22;98343.00;;;9.17;100.00
11349;BME280;5729;43.570;27.826;2023-04-04T01:28:48;98337.75;;;9.24;100.00
11349;BME280;5729;43.570;27.826;2023-04-04T01:31:20;98317.38;;;9.23;100.00
11349;BME280;5729;43.570;27.826;2023-04-04T01:33:54;98329.66;;;9.24;100.00
11349;BME280;5729;43.570;27.826;2023-04-04T01:36:32;98307.25;;;9.13;100.00
11349;BME280;5729;43.570;27.826;2023-04-04T01:39:40;98321.47;;;9.14;100.00
11349;BME280;5729;43.570;27.826;2023-04-04T01:42:08;98307.50;;;9.04;100.00
11349;BME280;5729;43.570;27.826;2023-04-04T01:44:34;98308.06;;;9.17;100.00
11349;BME280;5729;43.570;27.826;2023-04-04T01:47:00;98306.00;;;9.07;100.00
11349;BME280;5729;43.570;27.826;2023-04-04T01:49:27;98299.31;;;8.94;100.00
11349;BME280;5729;43.570;27.826;2023-04-04T01:51:54;98304.59;;;9.17;100.00
11349;BME280;5729;43.570;27.826;2023-04-04T01:54:20;98299.19;;;9.13;100.00
11349;BME280;5729;43.570;27.826;2023-04-04T01:56:46;98299.56;;;9.12;100.00
11349;BME280;5729;43.570;27.826;2023-04-04T01:59:12;98298.44;;;9.16;100.00
11349;BME280;5729;43.570;27.826;2023-04-04T02:01:37;98274.47;;;9.04;100.00
11349;BME280;5729;43.570;27.826;2023-04-04T02:04:03;98295.72;;;9.13;100.00
11349;BME280;5729;43.570;27.826;2023-04-04T02:06:29;98290.34;;;9.13;100.00
11349;BME280;5729;43.570;27.826;2023-04-04T02:08:54;98283.72;;;9.06;100.00
11349;BME280;5729;43.570;27.826;2023-04-04T02:11:21;98293.41;;;9.11;100.00
11349;BME280;5729;43.570;27.826;2023-04-04T02:13:49;98286.84;;;9.08;100.00
11349;BME280;5729;43.570;27.826;2023-04-04T02:16:14;98287.06;;;8.96;100.00
11349;BME280;5729;43.570;27.826;2023-04-04T02:18:40;98273.91;;;8.88;100.00
11349;BME280;5729;43.570;27.826;2023-04-04T02:21:06;98253.19;;;8.92;100.00
11349;BME280;5729;43.570;27.826;2023-04-04T02:23:32;98266.03;;;9.02;100.00
11349;BME280;5729;43.570;27.826;2023-04-04T02:25:58;98267.47;;;8.96;100.00
11349;BME280;5729;43.570;27.826;2023-04-04T02:28:23;98253.63;;;8.94;100.00
11349;BME280;5729;43.570;27.826;2023-04-04T02:30:49;98232.34;;;8.82;100.00
11349;BME280;5729;43.570;27.826;2023-04-04T02:33:15;98242.91;;;8.97;100.00
11349;BME280;5729;43.570;27.826;2023-04-04T02:35:40;98244.88;;;9.00;100.00
11349;BME280;5729;43.570;27.826;2023-04-04T02:38:05;98239.78;;;8.92;100.00
11349;BME280;5729;43.570;27.826;2023-04-04T02:40:31;98244.34;;;8.88;100.00
11349;BME280;5729;43.570;27.826;2023-04-04T02:42:57;98249.66;;;8.84;100.00
11349;BME280;5729;43.570;27.826;2023-04-04T02:45:22;98247.34;;;8.83;100.00
11349;BME280;5729;43.570;27.826;2023-04-04T02:47:51;98240.53;;;8.89;100.00
11349;BME280;5729;43.570;27.826;2023-04-04T02:50:17;98244.28;;;8.84;100.00
11349;BME280;5729;43.570;27.826;2023-04-04T02:52:43;98240.09;;;8.87;100.00
11349;BME280;5729;43.570;27.826;2023-04-04T02:55:08;98243.97;;;8.89;100.00
11349;BME280;5729;43.570;27.826;2023-04-04T02:57:34;98205.00;;;8.72;100.00
11349;BME280;5729;43.570;27.826;2023-04-04T03:00:00;98243.22;;;8.89;100.00
11349;BME280;5729;43.570;27.826;2023-04-04T03:02:27;98212.97;;;8.65;100.00
11349;BME280;5729;43.570;27.826;2023-04-04T03:04:53;98245.44;;;8.83;100.00
11349;BME280;5729;43.570;27.826;2023-04-04T03:07:18;98240.75;;;8.77;100.00
11349;BME280;5729;43.570;27.826;2023-04-04T03:09:43;98241.81;;;8.72;100.00
11349;BME280;5729;43.570;27.826;2023-04-04T03:12:12;98235.66;;;8.68;100.00
11349;BME280;5729;43.570;27.826;2023-04-04T03:14:38;98236.81;;;8.70;100.00
11349;BME280;5729;43.570;27.826;2023-04-04T03:17:03;98237.91;;;8.66;100.00
11349;BME280;5729;43.570;27.826;2023-04-04T03:19:29;98230.22;;;8.64;100.00
11349;BME280;5729;43.570;27.826;2023-04-04T03:21:54;98235.59;;;8.64;100.00
11349;BME280;5729;43.570;27.826;2023-04-04T03:24:20;98224.84;;;8.64;100.00
11349;BME280;5729;43.570;27.826;2023-04-04T03:26:45;98248.34;;;8.71;100.00
11349;BME280;5729;43.570;27.826;2023-04-04T03:29:11;98249.59;;;8.77;100.00
11349;BME280;5729;43.570;27.826;2023-04-04T03:31:36;98244.97;;;8.78;100.00
11349;BME280;5729;43.570;27.826;2023-04-04T03:34:02;98230.81;;;8.81;100.00
11349;BME280;5729;43.570;27.826;2023-04-04T03:36:29;98239.75;;;8.88;100.00
11349;BME280;5729;43.570;27.826;2023-04-04T03:38:55;98225.84;;;8.83;100.00
11349;BME280;5729;43.570;27.826;2023-04-04T03:41:20;98226.53;;;8.76;100.00
11349;BME280;5729;43.570;27.826;2023-04-04T03:43:46;98225.69;;;8.68;100.00
11349;BME280;5729;43.570;27.826;2023-04-04T03:46:12;98215.66;;;8.65;100.00
11349;BME280;5729;43.570;27.826;2023-04-04T03:48:38;98227.53;;;8.64;100.00
11349;BME280;5729;43.570;27.826;2023-04-04T03:51:04;98231.78;;;8.65;100.00
11349;BME280;5729;43.570;27.826;2023-04-04T03:53:29;98234.09;;;8.67;100.00
11349;BME280;5729;43.570;27.826;2023-04-04T03:55:55;98227.94;;;8.66;100.00
11349;BME280;5729;43.570;27.826;2023-04-04T03:58:21;98233.00;;;8.71;100.00
11349;BME280;5729;43.570;27.826;2023-04-04T04:00:47;98222.25;;;8.71;100.00
11349;BME280;5729;43.570;27.826;2023-04-04T04:03:13;98234.66;;;8.80;100.00
11349;BME280;5729;43.570;27.826;2023-04-04T04:05:38;98230.34;;;8.75;100.00
11349;BME280;5729;43.570;27.826;2023-04-04T04:08:04;98228.75;;;8.70;100.00
11349;BME280;5729;43.570;27.826;2023-04-04T04:10:29;98241.53;;;8.81;100.00
11349;BME280;5729;43.570;27.826;2023-04-04T04:12:55;98255.69;;;8.74;100.00
11349;BME280;5729;43.570;27.826;2023-04-04T04:15:21;98243.94;;;8.86;100.00
11349;BME280;5729;43.570;27.826;2023-04-04T04:17:46;98242.75;;;8.83;100.00
11349;BME280;5729;43.570;27.826;2023-04-04T04:20:12;98242.09;;;8.93;100.00
11349;BME280;5729;43.570;27.826;2023-04-04T04:22:37;98242.47;;;8.92;100.00
11349;BME280;5729;43.570;27.826;2023-04-04T04:25:03;98245.66;;;9.01;100.00
11349;BME280;5729;43.570;27.826;2023-04-04T04:27:29;98248.00;;;9.06;100.00
11349;BME280;5729;43.570;27.826;2023-04-04T04:29:55;98250.69;;;9.06;100.00
11349;BME280;5729;43.570;27.826;2023-04-04T04:32:20;98263.66;;;8.97;100.00
11349;BME280;5729;43.570;27.826;2023-04-04T04:34:46;98274.16;;;9.09;100.00
11349;BME280;5729;43.570;27.826;2023-04-04T04:37:12;98264.88;;;9.03;100.00
11349;BME280;5729;43.570;27.826;2023-04-04T04:39:37;98276.78;;;9.02;100.00
11349;BME280;5729;43.570;27.826;2023-04-04T04:42:03;98277.44;;;8.95;100.00
11349;BME280;5729;43.570;27.826;2023-04-04T04:44:29;98259.78;;;8.94;100.00
11349;BME280;5729;43.570;27.826;2023-04-04T04:46:54;98269.78;;;8.97;100.00
11349;BME280;5729;43.570;27.826;2023-04-04T04:49:20;98272.91;;;8.99;100.00
11349;BME280;5729;43.570;27.826;2023-04-04T04:51:45;98263.69;;;9.00;100.00
11349;BME280;5729;43.570;27.826;2023-04-04T04:54:11;98241.28;;;8.89;100.00
11349;BME280;5729;43.570;27.826;2023-04-04T04:56:36;98259.34;;;8.89;100.00
11349;BME280;5729;43.570;27.826;2023-04-04T04:59:02;98262.31;;;8.84;100.00
11349;BME280;5729;43.570;27.826;2023-04-04T05:01:28;98270.28;;;8.77;100.00
11349;BME280;5729;43.570;27.826;2023-04-04T05:03:53;98242.59;;;8.72;100.00
11349;BME280;5729;43.570;27.826;2023-04-04T05:06:18;98235.72;;;8.75;100.00
11349;BME280;5729;43.570;27.826;2023-04-04T05:08:44;98235.72;;;8.75;100.00
11349;BME280;5729;43.570;27.826;2023-04-04T05:11:09;98218.13;;;8.78;100.00
11349;BME280;5729;43.570;27.826;2023-04-04T05:13:35;98204.19;;;8.68;100.00
11349;BME280;5729;43.570;27.826;2023-04-04T05:16:01;98195.59;;;8.59;100.00
11349;BME280;5729;43.570;27.826;2023-04-04T05:18:26;98175.66;;;8.57;100.00
11349;BME280;5729;43.570;27.826;2023-04-04T05:20:55;98183.72;;;8.60;100.00
11349;BME280;5729;43.570;27.826;2023-04-04T05:23:21;98164.97;;;8.64;100.00
11349;BME280;5729;43.570;27.826;2023-04-04T05:25:48;98171.81;;;8.58;100.00
11349;BME280;5729;43.570;27.826;2023-04-04T05:28:15;98163.44;;;8.63;100.00
11349;BME280;5729;43.570;27.826;2023-04-04T05:30:40;98165.03;;;8.67;100.00
11349;BME280;5729;43.570;27.826;2023-04-04T05:33:06;98157.75;;;8.68;100.00
11349;BME280;5729;43.570;27.826;2023-04-04T05:35:32;98162.84;;;8.77;100.00
11349;BME280;5729;43.570;27.826;2023-04-04T05:37:57;98125.00;;;8.59;100.00
11349;BME280;5729;43.570;27.826;2023-04-04T05:40:23;98150.13;;;8.73;100.00
11349;BME280;5729;43.570;27.826;2023-04-04T05:45:20;98162.97;;;8.87;100.00
11349;BME280;5729;43.570;27.826;2023-04-04T05:47:45;98169.84;;;8.85;100.00
11349;BME280;5729;43.570;27.826;2023-04-04T05:50:10;98166.09;;;8.93;100.00
11349;BME280;5729;43.570;27.826;2023-04-04T05:52:36;98178.06;;;8.99;100.00
11349;BME280;5729;43.570;27.826;2023-04-04T05:55:01;98170.38;;;8.97;100.00
11349;BME280;5729;43.570;27.826;2023-04-04T05:57:27;98184.28;;;9.06;100.00
11349;BME280;5729;43.570;27.826;2023-04-04T05:59:53;98183.19;;;9.11;100.00
11349;BME280;5729;43.570;27.826;2023-04-04T06:02:18;98195.16;;;9.17;100.00
11349;BME280;5729;43.570;27.826;2023-04-04T06:04:44;98197.41;;;9.12;100.00
11349;BME280;5729;43.570;27.826;2023-04-04T06:07:09;98210.06;;;9.11;100.00
11349;BME280;5729;43.570;27.826;2023-04-04T06:09:35;98205.88;;;9.14;100.00
11349;BME280;5729;43.570;27.826;2023-04-04T06:12:01;98204.81;;;9.22;100.00
11349;BME280;5729;43.570;27.826;2023-04-04T06:14:29;98213.31;;;9.27;100.00
11349;BME280;5729;43.570;27.826;2023-04-04T06:16:55;98213.75;;;9.33;100.00
11349;BME280;5729;43.570;27.826;2023-04-04T06:19:22;98217.94;;;9.30;100.00
11349;BME280;5729;43.570;27.826;2023-04-04T06:21:47;98216.50;;;9.36;100.00
11349;BME280;5729;43.570;27.826;2023-04-04T06:24:12;98213.06;;;9.39;100.00
11349;BME280;5729;43.570;27.826;2023-04-04T06:26:38;98205.75;;;9.36;100.00
11349;BME280;5729;43.570;27.826;2023-04-04T06:29:03;98202.97;;;9.29;100.00
11349;BME280;5729;43.570;27.826;2023-04-04T06:31:29;98205.91;;;9.17;100.00
11349;BME280;5729;43.570;27.826;2023-04-04T06:33:55;98217.06;;;9.19;100.00
11349;BME280;5729;43.570;27.826;2023-04-04T06:36:20;98224.47;;;9.29;100.00
11349;BME280;5729;43.570;27.826;2023-04-04T06:38:46;98235.63;;;9.31;100.00
11349;BME280;5729;43.570;27.826;2023-04-04T06:41:11;98234.03;;;9.27;100.00
11349;BME280;5729;43.570;27.826;2023-04-04T06:43:36;98239.72;;;9.18;100.00
11349;BME280;5729;43.570;27.826;2023-04-04T06:46:02;98218.25;;;9.22;100.00
11349;BME280;5729;43.570;27.826;2023-04-04T06:48:28;98223.28;;;9.27;100.00
11349;BME280;5729;43.570;27.826;2023-04-04T06:50:53;98218.66;;;9.24;100.00
11349;BME280;5729;43.570;27.826;2023-04-04T06:53:19;98211.38;;;9.28;100.00
11349;BME280;5729;43.570;27.826;2023-04-04T06:55:45;98213.34;;;9.31;100.00
11349;BME280;5729;43.570;27.826;2023-04-04T06:58:10;98220.75;;;9.41;100.00
11349;BME280;5729;43.570;27.826;2023-04-04T07:00:35;98237.19;;;9.32;100.00
11349;BME280;5729;43.570;27.826;2023-04-04T07:03:02;98218.38;;;9.32;100.00
11349;BME280;5729;43.570;27.826;2023-04-04T07:05:28;98225.34;;;9.40;100.00
11349;BME280;5729;43.570;27.826;2023-04-04T07:07:54;98209.63;;;9.42;100.00
11349;BME280;5729;43.570;27.826;2023-04-04T07:10:21;98218.06;;;9.41;100.00
11349;BME280;5729;43.570;27.826;2023-04-04T07:12:47;98200.47;;;9.47;100.00
11349;BME280;5729;43.570;27.826;2023-04-04T07:15:13;98190.13;;;9.53;100.00
11349;BME280;5729;43.570;27.826;2023-04-04T07:17:39;98188.44;;;9.37;100.00
11349;BME280;5729;43.570;27.826;2023-04-04T07:20:06;98170.84;;;9.43;100.00
11349;BME280;5729;43.570;27.826;2023-04-04T07:22:35;98169.34;;;9.46;100.00
11349;BME280;5729;43.570;27.826;2023-04-04T07:25:01;98145.78;;;9.32;100.00
11349;BME280;5729;43.570;27.826;2023-04-04T07:27:26;98156.63;;;9.43;100.00
11349;BME280;5729;43.570;27.826;2023-04-04T07:29:52;98142.72;;;9.37;100.00
11349;BME280;5729;43.570;27.826;2023-04-04T07:32:17;98140.53;;;9.46;100.00
11349;BME280;5729;43.570;27.826;2023-04-04T07:34:42;98125.53;;;9.49;100.00
11349;BME280;5729;43.570;27.826;2023-04-04T07:37:08;98121.28;;;9.44;100.00
11349;BME280;5729;43.570;27.826;2023-04-04T07:39:34;98113.22;;;9.44;100.00
11349;BME280;5729;43.570;27.826;2023-04-04T07:41:59;98118.19;;;9.42;100.00
11349;BME280;5729;43.570;27.826;2023-04-04T07:44:24;98068.06;;;9.20;100.00
11349;BME280;5729;43.570;27.826;2023-04-04T07:46:50;98136.81;;;9.65;100.00
11349;BME280;5729;43.570;27.826;2023-04-04T07:49:17;98143.03;;;9.69;100.00
11349;BME280;5729;43.570;27.826;2023-04-04T07:51:42;98133.06;;;9.77;100.00
11349;BME280;5729;43.570;27.826;2023-04-04T07:54:08;98124.19;;;9.69;100.00
11349;BME280;5729;43.570;27.826;2023-04-04T07:56:34;98122.28;;;9.70;100.00
11349;BME280;5729;43.570;27.826;2023-04-04T07:58:59;98088.38;;;9.62;100.00
11349;BME280;5729;43.570;27.826;2023-04-04T08:01:25;98081.50;;;9.68;100.00
11349;BME280;5729;43.570;27.826;2023-04-04T08:03:51;98079.81;;;9.49;100.00
11349;BME280;5729;43.570;27.826;2023-04-04T08:06:17;98076.47;;;9.63;100.00
11349;BME280;5729;43.570;27.826;2023-04-04T08:08:43;98079.19;;;9.66;100.00
11349;BME280;5729;43.570;27.826;2023-04-04T08:11:11;98086.16;;;9.74;100.00
11349;BME280;5729;43.570;27.826;2023-04-04T08:13:36;98085.97;;;9.50;100.00
11349;BME280;5729;43.570;27.826;2023-04-04T08:16:03;98103.28;;;9.52;100.00
11349;BME280;5729;43.570;27.826;2023-04-04T08:18:29;98094.84;;;9.54;100.00
11349;BME280;5729;43.570;27.826;2023-04-04T08:20:54;98105.25;;;9.55;100.00
11349;BME280;5729;43.570;27.826;2023-04-04T08:23:20;98109.16;;;9.65;100.00
11349;BME280;5729;43.570;27.826;2023-04-04T08:25:46;98094.59;;;9.69;100.00
11349;BME280;5729;43.570;27.826;2023-04-04T08:28:11;98088.91;;;9.81;100.00
11349;BME280;5729;43.570;27.826;2023-04-04T08:30:38;98085.41;;;9.77;100.00
11349;BME280;5729;43.570;27.826;2023-04-04T08:33:03;98093.13;;;9.82;100.00
11349;BME280;5729;43.570;27.826;2023-04-04T08:35:29;98080.13;;;9.92;100.00
11349;BME280;5729;43.570;27.826;2023-04-04T08:37:54;98082.88;;;10.02;100.00
11349;BME280;5729;43.570;27.826;2023-04-04T08:40:21;98061.28;;;9.95;100.00
11349;BME280;5729;43.570;27.826;2023-04-04T08:42:49;98067.47;;;9.99;100.00
11349;BME280;5729;43.570;27.826;2023-04-04T08:45:16;98068.28;;;10.07;100.00
11349;BME280;5729;43.570;27.826;2023-04-04T08:47:43;98067.06;;;9.97;100.00
11349;BME280;5729;43.570;27.826;2023-04-04T08:50:09;98055.50;;;9.93;100.00
11349;BME280;5729;43.570;27.826;2023-04-04T08:52:35;98052.66;;;9.65;100.00
11349;BME280;5729;43.570;27.826;2023-04-04T08:55:04;98046.59;;;9.78;100.00
11349;BME280;5729;43.570;27.826;2023-04-04T08:57:29;98058.53;;;9.84;100.00
11349;BME280;5729;43.570;27.826;2023-04-04T08:59:55;98055.13;;;9.95;100.00
11349;BME280;5729;43.570;27.826;2023-04-04T09:05:07;98071.66;;;9.93;100.00
11349;BME280;5729;43.570;27.826;2023-04-04T09:07:34;98064.28;;;9.83;100.00
11349;BME280;5729;43.570;27.826;2023-04-04T09:10:00;98062.00;;;9.81;100.00
11349;BME280;5729;43.570;27.826;2023-04-04T09:12:27;98084.81;;;10.02;100.00
11349;BME280;5729;43.570;27.826;2023-04-04T09:14:55;98089.84;;;10.10;100.00
11349;BME280;5729;43.570;27.826;2023-04-04T09:17:21;98084.81;;;10.09;100.00
11349;BME280;5729;43.570;27.826;2023-04-04T09:19:46;98081.78;;;10.14;100.00
11349;BME280;5729;43.570;27.826;2023-04-04T09:22:14;98078.66;;;10.08;100.00
11349;BME280;5729;43.570;27.826;2023-04-04T09:24:42;98075.19;;;10.08;100.00
11349;BME280;5729;43.570;27.826;2023-04-04T09:27:09;98059.94;;;10.23;100.00
11349;BME280;5729;43.570;27.826;2023-04-04T09:29:36;98071.06;;;10.21;100.00
11349;BME280;5729;43.570;27.826;2023-04-04T09:32:02;98079.09;;;10.17;100.00
11349;BME280;5729;43.570;27.826;2023-04-04T09:34:28;98076.41;;;10.17;100.00
11349;BME280;5729;43.570;27.826;2023-04-04T09:36:54;98076.41;;;10.17;100.00
11349;BME280;5729;43.570;27.826;2023-04-04T09:39:22;98087.59;;;10.19;100.00
11349;BME280;5729;43.570;27.826;2023-04-04T09:41:48;98096.09;;;10.29;100.00
11349;BME280;5729;43.570;27.826;2023-04-04T09:44:15;98093.00;;;10.23;100.00
11349;BME280;5729;43.570;27.826;2023-04-04T09:46:40;98084.94;;;10.23;100.00
11349;BME280;5729;43.570;27.826;2023-04-04T09:49:10;98090.44;;;10.48;100.00
11349;BME280;5729;43.570;27.826;2023-04-04T09:51:36;98102.72;;;10.42;100.00
11349;BME280;5729;43.570;27.826;2023-04-04T09:54:19;98100.41;;;10.37;100.00
11349;BME280;5729;43.570;27.826;2023-04-04T09:56:46;98101.16;;;10.41;100.00
11349;BME280;5729;43.570;27.826;2023-04-04T09:59:13;98111.16;;;10.40;100.00
11349;BME280;5729;43.570;27.826;2023-04-04T10:01:39;98109.22;;;10.34;100.00
11349;BME280;5729;43.570;27.826;2023-04-04T10:04:04;98082.72;;;10.46;100.00
11349;BME280;5729;43.570;27.826;2023-04-04T10:06:30;98092.69;;;10.39;100.00
11349;BME280;5729;43.570;27.826;2023-04-04T10:08:56;98081.25;;;10.60;100.00
11349;BME280;5729;43.570;27.826;2023-04-04T10:11:32;98078.19;;;10.68;100.00
11349;BME280;5729;43.570;27.826;2023-04-04T10:13:59;98071.25;;;10.71;100.00
11349;BME280;5729;43.570;27.826;2023-04-04T10:16:30;98093.19;;;10.69;100.00
11349;BME280;5729;43.570;27.826;2023-04-04T10:18:57;98088.22;;;10.82;100.00
11349;BME280;5729;43.570;27.826;2023-04-04T10:21:25;98087.47;;;10.88;100.00
11349;BME280;5729;43.570;27.826;2023-04-04T10:23:51;98084.75;;;10.78;100.00
11349;BME280;5729;43.570;27.826;2023-04-04T10:26:18;98082.44;;;10.76;100.00
11349;BME280;5729;43.570;27.826;2023-04-04T10:28:43;98085.91;;;10.80;100.00
11349;BME280;5729;43.570;27.826;2023-04-04T10:31:22;98085.91;;;10.84;100.00
11349;BME280;5729;43.570;27.826;2023-04-04T10:37:17;98082.50;;;11.01;100.00
11349;BME280;5729;43.570;27.826;2023-04-04T10:42:18;98077.44;;;10.82;100.00
11349;BME280;5729;43.570;27.826;2023-04-04T10:44:44;98069.75;;;10.91;100.00
11349;BME280;5729;43.570;27.826;2023-04-04T10:49:42;98077.09;;;11.01;100.00
11349;BME280;5729;43.570;27.826;2023-04-04T10:52:10;98075.19;;;11.12;100.00
11349;BME280;5729;43.570;27.826;2023-04-04T10:54:36;98087.16;;;11.25;100.00
11349;BME280;5729;43.570;27.826;2023-04-04T10:57:02;98087.91;;;11.33;100.00
11349;BME280;5729;43.570;27.826;2023-04-04T10:59:28;98088.25;;;11.07;100.00
11349;BME280;5729;43.570;27.826;2023-04-04T11:01:58;98078.66;;;11.20;100.00
11349;BME280;5729;43.570;27.826;2023-04-04T11:04:38;98082.13;;;11.13;100.00
11349;BME280;5729;43.570;27.826;2023-04-04T11:07:16;98083.66;;;11.14;100.00
11349;BME280;5729;43.570;27.826;2023-04-04T11:09:48;98076.31;;;11.08;100.00
11349;BME280;5729;43.570;27.826;2023-04-04T11:12:15;98089.06;;;11.14;100.00
11349;BME280;5729;43.570;27.826;2023-04-04T11:15:15;98094.44;;;11.18;100.00
11349;BME280;5729;43.570;27.826;2023-04-04T11:17:59;98090.59;;;11.29;100.00
11349;BME280;5729;43.570;27.826;2023-04-04T11:20:33;98100.25;;;11.41;100.00
11349;BME280;5729;43.570;27.826;2023-04-04T11:23:13;98095.25;;;11.40;100.00
11349;BME280;5729;43.570;27.826;2023-04-04T11:25:55;98092.50;;;11.08;100.00
11349;BME280;5729;43.570;27.826;2023-04-04T11:34:02;98095.25;;;11.36;100.00
11349;BME280;5729;43.570;27.826;2023-04-04T11:39:02;98075.97;;;11.41;100.00
11349;BME280;5729;43.570;27.826;2023-04-04T11:42:09;98070.56;;;11.48;100.00
11349;BME280;5729;43.570;27.826;2023-04-04T11:45:01;98075.19;;;11.69;100.00
11349;BME280;5729;43.570;27.826;2023-04-04T11:47:27;98086.38;;;11.68;100.00
11349;BME280;5729;43.570;27.826;2023-04-04T11:50:14;98080.19;;;11.71;100.00
11349;BME280;5729;43.570;27.826;2023-04-04T11:52:40;98081.34;;;11.52;100.00
11349;BME280;5729;43.570;27.826;2023-04-04T11:55:14;98075.56;;;11.53;100.00
11349;BME280;5729;43.570;27.826;2023-04-04T11:57:41;98068.28;;;11.50;100.00
11349;BME280;5729;43.570;27.826;2023-04-04T12:00:07;98074.44;;;11.37;100.00
11349;BME280;5729;43.570;27.826;2023-04-04T12:02:34;98064.03;;;11.46;100.00
11349;BME280;5729;43.570;27.826;2023-04-04T12:04:59;98063.22;;;11.52;100.00
11349;BME280;5729;43.570;27.826;2023-04-04T12:07:26;98067.84;;;11.52;100.00
11349;BME280;5729;43.570;27.826;2023-04-04T12:09:52;98064.03;;;11.49;100.00
11349;BME280;5729;43.570;27.826;2023-04-04T12:12:18;98067.88;;;11.48;100.00
11349;BME280;5729;43.570;27.826;2023-04-04T12:14:46;98062.47;;;11.34;100.00
11349;BME280;5729;43.570;27.826;2023-04-04T12:17:11;98060.19;;;11.36;100.00
11349;BME280;5729;43.570;27.826;2023-04-04T12:19:39;98067.09;;;11.30;100.00
11349;BME280;5729;43.570;27.826;2023-04-04T12:22:05;98041.28;;;11.22;100.00
11349;BME280;5729;43.570;27.826;2023-04-04T12:24:32;98046.28;;;11.13;100.00
11349;BME280;5729;43.570;27.826;2023-04-04T12:26:58;98062.88;;;11.36;100.00
11349;BME280;5729;43.570;27.826;2023-04-04T12:29:25;98052.06;;;11.47;100.00
11349;BME280;5729;43.570;27.826;2023-04-04T12:31:54;98058.25;;;11.61;100.00
11349;BME280;5729;43.570;27.826;2023-04-04T12:34:21;98054.75;;;11.64;100.00
11349;BME280;5729;43.570;27.826;2023-04-04T12:36:50;98055.91;;;11.71;100.00
11349;BME280;5729;43.570;27.826;2023-04-04T12:39:17;98044.34;;;11.67;100.00
11349;BME280;5729;43.570;27.826;2023-04-04T12:41:51;98044.72;;;11.65;100.00
11349;BME280;5729;43.570;27.826;2023-04-04T12:44:34;98050.91;;;11.73;100.00
11349;BME280;5729;43.570;27.826;2023-04-04T12:47:02;98045.88;;;11.64;100.00
11349;BME280;5729;43.570;27.826;2023-04-04T12:49:45;98065.16;;;11.66;100.00
11349;BME280;5729;43.570;27.826;2023-04-04T12:52:17;98053.63;;;11.48;100.00
11349;BME280;5729;43.570;27.826;2023-04-04T12:54:45;98048.97;;;11.55;100.00
11349;BME280;5729;43.570;27.826;2023-04-04T12:57:23;98054.38;;;11.59;100.00
11349;BME280;5729;43.570;27.826;2023-04-04T12:59:49;98051.28;;;11.57;100.00
11349;BME280;5729;43.570;27.826;2023-04-04T13:02:16;98042.06;;;11.51;100.00
11349;BME280;5729;43.570;27.826;2023-04-04T13:04:46;98039.34;;;11.54;100.00
11349;BME280;5729;43.570;27.826;2023-04-04T13:07:25;98040.09;;;11.51;100.00
11349;BME280;5729;43.570;27.826;2023-04-04T13:09:58;98033.94;;;11.58;100.00
11349;BME280;5729;43.570;27.826;2023-04-04T13:12:25;98046.66;;;11.54;100.00
11349;BME280;5729;43.570;27.826;2023-04-04T13:15:03;98049.00;;;11.45;100.00
11349;BME280;5729;43.570;27.826;2023-04-04T13:20:09;98035.09;;;11.57;100.00
11349;BME280;5729;43.570;27.826;2023-04-04T13:22:36;98040.13;;;11.55;100.00